sensor_id;sensor_type;location;lat;lon;timestamp;pressure;altitude;pressure_sealevel;temperature;humidity
40205;BME280;26963;42.666;23.366;2023-07-08T00:00:52;95224.59;;;22.59;56.70
40205;BME280;26963;42.666;23.366;2023-07-08T00:03:18;95202.25;;;22.50;56.38
40205;BME280;26963;42.666;23.366;2023-07-08T00:05:45;95209.59;;;22.46;56.69
40205;BME280;26963;42.666;23.366;2023-07-08T00:08:13;95189.78;;;22.29;56.96
40205;BME280;26963;42.666;23.366;2023-07-08T00:10:39;95204.19;;;22.50;56.77
40205;BME280;26963;42.666;23.366;2023-07-08T00:13:05;95217.34;;;22.44;56.51
40205;BME280;26963;42.666;23.366;2023-07-08T00:15:32;95210.22;;;22.39;57.20
40205;BME280;26963;42.666;23.366;2023-07-08T00:17:58;95207.78;;;22.34;56.99
40205;BME280;26963;42.666;23.366;2023-07-08T00:20:39;95188.91;;;22.25;57.36
40205;BME280;26963;42.666;23.366;2023-07-08T00:23:07;95198.81;;;22.34;56.94
40205;BME280;26963;42.666;23.366;2023-07-08T00:25:33;95196.09;;;22.34;57.71
40205;BME280;26963;42.666;23.366;2023-07-08T00:27:59;95152.91;;;21.93;57.22
40205;BME280;26963;42.666;23.366;2023-07-08T00:30:29;95198.38;;;22.31;57.23
40205;BME280;26963;42.666;23.366;2023-07-08T00:32:55;95177.16;;;22.21;57.15
40205;BME280;26963;42.666;23.366;2023-07-08T00:35:28;95178.59;;;22.15;57.54
40205;BME280;26963;42.666;23.366;2023-07-08T00:37:55;95181.41;;;22.19;57.48
40205;BME280;26963;42.666;23.366;2023-07-08T00:40:38;95134.47;;;21.86;57.42
40205;BME280;26963;42.666;23.366;2023-07-08T00:43:14;95128.91;;;21.79;57.45
40205;BME280;26963;42.666;23.366;2023-07-08T00:45:47;95197.47;;;22.24;57.59
40205;BME280;26963;42.666;23.366;2023-07-08T00:48:24;95154.13;;;21.95;57.04
40205;BME280;26963;42.666;23.366;2023-07-08T00:50:51;95194.25;;;22.18;57.54
40205;BME280;26963;42.666;23.366;2023-07-08T00:53:35;95191.88;;;22.16;57.38
40205;BME280;26963;42.666;23.366;2023-07-08T00:56:03;95184.06;;;22.15;57.48
40205;BME280;26963;42.666;23.366;2023-07-08T00:58:37;95193.31;;;22.10;57.22
40205;BME280;26963;42.666;23.366;2023-07-08T01:01:06;95179.19;;;22.05;57.85
40205;BME280;26963;42.666;23.366;2023-07-08T01:03:36;95162.00;;;22.01;58.17
40205;BME280;26963;42.666;23.366;2023-07-08T01:06:05;95095.81;;;21.57;58.04
40205;BME280;26963;42.666;23.366;2023-07-08T01:08:32;95177.75;;;22.11;57.86
40205;BME280;26963;42.666;23.366;2023-07-08T01:11:01;95167.63;;;22.11;57.63
40205;BME280;26963;42.666;23.366;2023-07-08T01:13:33;95152.25;;;21.99;57.84
40205;BME280;26963;42.666;23.366;2023-07-08T01:16:00;95161.41;;;22.11;57.93
40205;BME280;26963;42.666;23.366;2023-07-08T01:18:26;95121.88;;;21.78;57.78
40205;BME280;26963;42.666;23.366;2023-07-08T01:20:52;95114.72;;;21.70;57.64
40205;BME280;26963;42.666;23.366;2023-07-08T01:23:22;95114.59;;;21.62;57.78
40205;BME280;26963;42.666;23.366;2023-07-08T01:25:48;95133.91;;;21.77;58.18
40205;BME280;26963;42.666;23.366;2023-07-08T01:28:14;95107.84;;;21.56;57.97
40205;BME280;26963;42.666;23.366;2023-07-08T01:30:41;95143.81;;;21.85;58.12
40205;BME280;26963;42.666;23.366;2023-07-08T01:33:16;95150.13;;;21.89;58.00
40205;BME280;26963;42.666;23.366;2023-07-08T01:35:44;95060.97;;;21.27;57.97
40205;BME280;26963;42.666;23.366;2023-07-08T01:38:12;95128.75;;;21.72;58.28
40205;BME280;26963;42.666;23.366;2023-07-08T01:40:48;95156.84;;;21.76;58.32
40205;BME280;26963;42.666;23.366;2023-07-08T01:43:14;95151.84;;;21.78;58.24
40205;BME280;26963;42.666;23.366;2023-07-08T01:45:41;95106.09;;;21.48;58.51
40205;BME280;26963;42.666;23.366;2023-07-08T01:48:09;95124.59;;;21.58;58.52
40205;BME280;26963;42.666;23.366;2023-07-08T01:53:15;95122.31;;;21.60;58.53
40205;BME280;26963;42.666;23.366;2023-07-08T01:55:41;95090.69;;;21.36;58.35
40205;BME280;26963;42.666;23.366;2023-07-08T01:58:07;95099.78;;;21.44;58.24
40205;BME280;26963;42.666;23.366;2023-07-08T02:00:33;95122.31;;;21.60;58.77
40205;BME280;26963;42.666;23.366;2023-07-08T02:02:58;95140.78;;;21.71;58.44
40205;BME280;26963;42.666;23.366;2023-07-08T02:05:24;95130.94;;;21.62;58.26
40205;BME280;26963;42.666;23.366;2023-07-08T02:07:49;95140.94;;;21.58;58.19
40205;BME280;26963;42.666;23.366;2023-07-08T02:10:15;95138.66;;;21.60;58.33
40205;BME280;26963;42.666;23.366;2023-07-08T02:12:40;95112.53;;;21.40;58.63
40205;BME280;26963;42.666;23.366;2023-07-08T02:15:07;95158.56;;;21.64;58.47
40205;BME280;26963;42.666;23.366;2023-07-08T02:17:33;95157.34;;;21.62;58.49
40205;BME280;26963;42.666;23.366;2023-07-08T02:19:59;95144.19;;;21.48;58.48
40205;BME280;26963;42.666;23.366;2023-07-08T02:22:25;95116.25;;;21.31;58.43
40205;BME280;26963;42.666;23.366;2023-07-08T02:24:51;95172.53;;;21.63;58.81
40205;BME280;26963;42.666;23.366;2023-07-08T02:27:16;95170.09;;;21.58;58.87
40205;BME280;26963;42.666;23.366;2023-07-08T02:29:42;95165.88;;;21.60;58.73
40205;BME280;26963;42.666;23.366;2023-07-08T02:32:08;95160.25;;;21.53;58.76
40205;BME280;26963;42.666;23.366;2023-07-08T02:34:37;95184.22;;;21.63;58.20
40205;BME280;26963;42.666;23.366;2023-07-08T02:37:04;95145.03;;;21.32;58.55
40205;BME280;26963;42.666;23.366;2023-07-08T02:39:29;95119.03;;;21.15;58.55
40205;BME280;26963;42.666;23.366;2023-07-08T02:41:55;95192.38;;;21.63;59.28
40205;BME280;26963;42.666;23.366;2023-07-08T02:44:20;95116.66;;;21.14;58.36
40205;BME280;26963;42.666;23.366;2023-07-08T02:46:46;95132.38;;;21.21;58.70
40205;BME280;26963;42.666;23.366;2023-07-08T02:49:11;95124.31;;;21.08;58.75
40205;BME280;26963;42.666;23.366;2023-07-08T02:51:37;95178.72;;;21.44;58.99
40205;BME280;26963;42.666;23.366;2023-07-08T02:54:03;95138.09;;;21.15;59.27
40205;BME280;26963;42.666;23.366;2023-07-08T02:56:28;95204.59;;;21.54;59.30
40205;BME280;26963;42.666;23.366;2023-07-08T02:58:54;95206.28;;;21.58;59.25
40205;BME280;26963;42.666;23.366;2023-07-08T03:01:20;95203.91;;;21.57;58.89
40205;BME280;26963;42.666;23.366;2023-07-08T03:03:46;95208.59;;;21.56;59.04
40205;BME280;26963;42.666;23.366;2023-07-08T03:06:12;95208.66;;;21.60;59.11
40205;BME280;26963;42.666;23.366;2023-07-08T03:08:38;95206.28;;;21.58;58.80
40205;BME280;26963;42.666;23.366;2023-07-08T03:11:05;95188.97;;;21.50;59.25
40205;BME280;26963;42.666;23.366;2023-07-08T03:13:32;95200.66;;;21.51;58.71
40205;BME280;26963;42.666;23.366;2023-07-08T03:15:58;95196.19;;;21.59;59.06
40205;BME280;26963;42.666;23.366;2023-07-08T03:18:24;95176.00;;;21.44;58.29
40205;BME280;26963;42.666;23.366;2023-07-08T03:20:53;95198.63;;;21.64;59.06
40205;BME280;26963;42.666;23.366;2023-07-08T03:23:22;95189.25;;;21.61;58.52
40205;BME280;26963;42.666;23.366;2023-07-08T03:25:47;95189.25;;;21.61;58.58
40205;BME280;26963;42.666;23.366;2023-07-08T03:28:13;95147.31;;;21.30;58.45
40205;BME280;26963;42.666;23.366;2023-07-08T03:30:42;95195.97;;;21.67;58.39
40205;BME280;26963;42.666;23.366;2023-07-08T03:33:08;95181.94;;;21.65;58.11
40205;BME280;26963;42.666;23.366;2023-07-08T03:35:34;95192.69;;;21.78;57.95
40205;BME280;26963;42.666;23.366;2023-07-08T03:38:00;95163.03;;;21.73;57.73
40205;BME280;26963;42.666;23.366;2023-07-08T03:40:26;95187.50;;;21.92;57.78
40205;BME280;26963;42.666;23.366;2023-07-08T03:42:52;95111.34;;;21.57;57.38
40205;BME280;26963;42.666;23.366;2023-07-08T03:45:17;95134.66;;;21.74;57.30
40205;BME280;26963;42.666;23.366;2023-07-08T03:47:43;95172.25;;;22.07;56.66
40205;BME280;26963;42.666;23.366;2023-07-08T03:50:23;95166.56;;;22.16;56.55
40205;BME280;26963;42.666;23.366;2023-07-08T03:52:50;95183.59;;;22.32;56.17
40205;BME280;26963;42.666;23.366;2023-07-08T03:55:16;95140.47;;;22.15;55.92
40205;BME280;26963;42.666;23.366;2023-07-08T03:57:42;95175.41;;;22.52;55.38
40205;BME280;26963;42.666;23.366;2023-07-08T04:00:09;95170.81;;;22.56;55.14
40205;BME280;26963;42.666;23.366;2023-07-08T04:02:41;95179.53;;;22.66;54.98
40205;BME280;26963;42.666;23.366;2023-07-08T04:05:09;95183.75;;;22.86;54.51
40205;BME280;26963;42.666;23.366;2023-07-08T04:07:38;95187.13;;;23.03;54.36
40205;BME280;26963;42.666;23.366;2023-07-08T04:10:03;95177.47;;;23.09;53.60
40205;BME280;26963;42.666;23.366;2023-07-08T04:12:29;95128.56;;;22.96;53.00
40205;BME280;26963;42.666;23.366;2023-07-08T04:14:54;95182.28;;;23.42;52.86
40205;BME280;26963;42.666;23.366;2023-07-08T04:17:20;95141.69;;;23.41;52.02
40205;BME280;26963;42.666;23.366;2023-07-08T04:19:49;95184.59;;;24.01;51.21
40205;BME280;26963;42.666;23.366;2023-07-08T04:22:15;95180.28;;;24.34;50.28
40205;BME280;26963;42.666;23.366;2023-07-08T04:24:41;95187.78;;;24.82;49.41
40205;BME280;26963;42.666;23.366;2023-07-08T04:27:14;95202.25;;;25.35;47.48
40205;BME280;26963;42.666;23.366;2023-07-08T04:29:40;95181.34;;;25.71;46.32
40205;BME280;26963;42.666;23.366;2023-07-08T04:32:06;95196.47;;;26.35;45.00
40205;BME280;26963;42.666;23.366;2023-07-08T04:34:32;95206.00;;;26.89;43.31
40205;BME280;26963;42.666;23.366;2023-07-08T04:36:58;95203.63;;;27.30;42.85
40205;BME280;26963;42.666;23.366;2023-07-08T04:39:23;95208.31;;;27.59;41.50
40205;BME280;26963;42.666;23.366;2023-07-08T04:41:49;95196.06;;;27.92;41.19
40205;BME280;26963;42.666;23.366;2023-07-08T04:44:14;95191.53;;;28.42;39.98
40205;BME280;26963;42.666;23.366;2023-07-08T04:46:50;95196.47;;;29.21;38.22
40205;BME280;26963;42.666;23.366;2023-07-08T04:49:18;95193.31;;;30.34;35.72
40205;BME280;26963;42.666;23.366;2023-07-08T04:51:44;95197.13;;;31.26;33.94
40205;BME280;26963;42.666;23.366;2023-07-08T04:54:09;95177.31;;;31.75;32.73
40205;BME280;26963;42.666;23.366;2023-07-08T04:56:46;95204.69;;;31.89;32.32
40205;BME280;26963;42.666;23.366;2023-07-08T04:59:17;95127.31;;;29.85;35.14
40205;BME280;26963;42.666;23.366;2023-07-08T05:01:43;95210.53;;;29.38;36.77
40205;BME280;26963;42.666;23.366;2023-07-08T05:04:11;95176.59;;;28.39;38.31
40205;BME280;26963;42.666;23.366;2023-07-08T05:06:37;95212.22;;;27.76;39.71
40205;BME280;26963;42.666;23.366;2023-07-08T05:09:03;95166.00;;;26.88;41.43
40205;BME280;26963;42.666;23.366;2023-07-08T05:11:29;95203.59;;;26.58;43.10
40205;BME280;26963;42.666;23.366;2023-07-08T05:13:55;95208.53;;;26.09;43.78
40205;BME280;26963;42.666;23.366;2023-07-08T05:16:20;95213.47;;;25.75;44.73
40205;BME280;26963;42.666;23.366;2023-07-08T05:18:46;95223.06;;;25.43;45.81
40205;BME280;26963;42.666;23.366;2023-07-08T05:21:12;95222.78;;;25.07;46.55
40205;BME280;26963;42.666;23.366;2023-07-08T05:23:39;95220.56;;;24.79;47.26
40205;BME280;26963;42.666;23.366;2023-07-08T05:26:05;95231.00;;;24.66;48.01
40205;BME280;26963;42.666;23.366;2023-07-08T05:28:33;95230.78;;;24.44;48.45
40205;BME280;26963;42.666;23.366;2023-07-08T05:30:59;95233.84;;;24.39;49.16
40205;BME280;26963;42.666;23.366;2023-07-08T05:33:28;95238.75;;;24.22;49.11
40205;BME280;26963;42.666;23.366;2023-07-08T05:35:54;95190.66;;;23.87;49.54
40205;BME280;26963;42.666;23.366;2023-07-08T05:38:20;95184.78;;;23.85;49.74
40205;BME280;26963;42.666;23.366;2023-07-08T05:40:49;95215.88;;;24.04;49.75
40205;BME280;26963;42.666;23.366;2023-07-08T05:43:19;95216.78;;;24.15;50.04
40205;BME280;26963;42.666;23.366;2023-07-08T05:45:44;95213.97;;;24.08;49.44
40205;BME280;26963;42.666;23.366;2023-07-08T05:48:10;95241.81;;;24.17;49.50
40205;BME280;26963;42.666;23.366;2023-07-08T05:50:36;95242.91;;;24.13;50.08
40205;BME280;26963;42.666;23.366;2023-07-08T05:53:02;95245.19;;;24.07;50.18
40205;BME280;26963;42.666;23.366;2023-07-08T05:55:28;95252.31;;;24.15;50.00
40205;BME280;26963;42.666;23.366;2023-07-08T05:57:53;95257.66;;;24.38;49.14
40205;BME280;26963;42.666;23.366;2023-07-08T06:00:19;95231.19;;;24.46;48.20
40205;BME280;26963;42.666;23.366;2023-07-08T06:02:45;95229.09;;;24.70;47.69
40205;BME280;26963;42.666;23.366;2023-07-08T06:05:10;95200.38;;;24.90;47.16
40205;BME280;26963;42.666;23.366;2023-07-08T06:07:36;95254.03;;;25.54;46.25
40205;BME280;26963;42.666;23.366;2023-07-08T06:10:02;95262.81;;;25.78;45.81
40205;BME280;26963;42.666;23.366;2023-07-08T06:12:30;95251.53;;;25.94;44.86
40205;BME280;26963;42.666;23.366;2023-07-08T06:14:56;95248.13;;;26.15;44.19
40205;BME280;26963;42.666;23.366;2023-07-08T06:17:21;95246.66;;;26.32;43.64
40205;BME280;26963;42.666;23.366;2023-07-08T06:19:47;95265.84;;;26.36;43.19
40205;BME280;26963;42.666;23.366;2023-07-08T06:22:13;95261.91;;;26.30;43.59
40205;BME280;26963;42.666;23.366;2023-07-08T06:24:38;95255.56;;;26.11;43.63
40205;BME280;26963;42.666;23.366;2023-07-08T06:27:04;95273.09;;;26.03;44.09
40205;BME280;26963;42.666;23.366;2023-07-08T06:29:30;95274.63;;;25.89;44.67
40205;BME280;26963;42.666;23.366;2023-07-08T06:31:56;95276.91;;;25.80;44.56
40205;BME280;26963;42.666;23.366;2023-07-08T06:34:21;95266.63;;;25.63;44.40
40205;BME280;26963;42.666;23.366;2023-07-08T06:36:49;95272.13;;;25.63;44.17
40205;BME280;26963;42.666;23.366;2023-07-08T06:39:14;95230.47;;;25.39;44.06
40205;BME280;26963;42.666;23.366;2023-07-08T06:41:40;95265.50;;;25.71;44.22
40205;BME280;26963;42.666;23.366;2023-07-08T06:44:05;95209.00;;;25.48;44.18
40205;BME280;26963;42.666;23.366;2023-07-08T06:46:31;95253.91;;;25.96;43.61
40205;BME280;26963;42.666;23.366;2023-07-08T06:48:57;95181.34;;;25.68;43.43
40205;BME280;26963;42.666;23.366;2023-07-08T06:51:22;95246.59;;;26.21;42.70
40205;BME280;26963;42.666;23.366;2023-07-08T06:53:48;95226.22;;;26.23;41.90
40205;BME280;26963;42.666;23.366;2023-07-08T06:56:13;95258.56;;;27.23;40.79
40205;BME280;26963;42.666;23.366;2023-07-08T06:58:39;95255.72;;;28.95;37.78
40205;BME280;26963;42.666;23.366;2023-07-08T07:01:05;95257.47;;;28.56;37.49
40205;BME280;26963;42.666;23.366;2023-07-08T07:03:30;95261.03;;;29.20;36.38
40205;BME280;26963;42.666;23.366;2023-07-08T07:05:56;95253.34;;;29.88;34.71
40205;BME280;26963;42.666;23.366;2023-07-08T07:08:21;95255.03;;;31.05;33.52
40205;BME280;26963;42.666;23.366;2023-07-08T07:10:47;95264.34;;;30.30;34.42
40205;BME280;26963;42.666;23.366;2023-07-08T07:13:12;95204.09;;;29.52;34.70
40205;BME280;26963;42.666;23.366;2023-07-08T07:15:38;95265.47;;;30.32;33.33
40205;BME280;26963;42.666;23.366;2023-07-08T07:18:03;95259.03;;;31.99;31.52
40205;BME280;26963;42.666;23.366;2023-07-08T07:20:29;95262.53;;;31.32;32.31
40205;BME280;26963;42.666;23.366;2023-07-08T07:22:55;95215.25;;;31.27;31.10
40205;BME280;26963;42.666;23.366;2023-07-08T07:25:21;95246.03;;;32.93;29.15
40205;BME280;26963;42.666;23.366;2023-07-08T07:27:47;95230.25;;;35.00;26.57
40205;BME280;26963;42.666;23.366;2023-07-08T07:30:12;95255.22;;;36.97;24.26
40205;BME280;26963;42.666;23.366;2023-07-08T07:32:41;95269.13;;;38.07;22.64
40205;BME280;26963;42.666;23.366;2023-07-08T07:35:08;95264.41;;;38.78;20.75
40205;BME280;26963;42.666;23.366;2023-07-08T07:37:33;95275.38;;;39.67;20.08
40205;BME280;26963;42.666;23.366;2023-07-08T07:39:59;95280.00;;;40.19;19.58
40205;BME280;26963;42.666;23.366;2023-07-08T07:42:27;95247.38;;;40.75;18.63
40205;BME280;26963;42.666;23.366;2023-07-08T07:44:52;95281.22;;;41.52;17.97
40205;BME280;26963;42.666;23.366;2023-07-08T07:47:18;95243.78;;;41.61;17.77
40205;BME280;26963;42.666;23.366;2023-07-08T07:49:44;95286.66;;;42.18;17.38
40205;BME280;26963;42.666;23.366;2023-07-08T07:52:09;95285.63;;;42.68;17.22
40205;BME280;26963;42.666;23.366;2023-07-08T07:54:39;95252.28;;;42.81;16.57
40205;BME280;26963;42.666;23.366;2023-07-08T07:57:05;95257.53;;;43.38;16.48
40205;BME280;26963;42.666;23.366;2023-07-08T07:59:30;95290.69;;;43.97;16.06
40205;BME280;26963;42.666;23.366;2023-07-08T08:01:56;95254.06;;;44.09;15.22
40205;BME280;26963;42.666;23.366;2023-07-08T08:04:40;95291.09;;;44.39;14.98
40205;BME280;26963;42.666;23.366;2023-07-08T08:07:05;95296.63;;;44.22;15.60
40205;BME280;26963;42.666;23.366;2023-07-08T08:09:31;95243.59;;;44.15;15.53
40205;BME280;26963;42.666;23.366;2023-07-08T08:11:57;95284.69;;;44.61;15.40
40205;BME280;26963;42.666;23.366;2023-07-08T08:14:22;95267.81;;;44.84;15.49
40205;BME280;26963;42.666;23.366;2023-07-08T08:16:48;95282.44;;;44.94;14.77
40205;BME280;26963;42.666;23.366;2023-07-08T08:19:13;95276.03;;;45.16;14.64
40205;BME280;26963;42.666;23.366;2023-07-08T08:21:39;95274.19;;;45.07;14.57
40205;BME280;26963;42.666;23.366;2023-07-08T08:24:05;95278.34;;;45.29;14.36
40205;BME280;26963;42.666;23.366;2023-07-08T08:26:31;95274.44;;;45.38;14.93
40205;BME280;26963;42.666;23.366;2023-07-08T08:28:57;95270.84;;;45.49;14.38
40205;BME280;26963;42.666;23.366;2023-07-08T08:31:22;95248.53;;;45.34;14.14
40205;BME280;26963;42.666;23.366;2023-07-08T08:33:49;95248.03;;;45.18;14.09
40205;BME280;26963;42.666;23.366;2023-07-08T08:36:16;95286.03;;;45.23;14.25
40205;BME280;26963;42.666;23.366;2023-07-08T08:38:41;95242.66;;;44.86;14.44
40205;BME280;26963;42.666;23.366;2023-07-08T08:41:18;95276.28;;;44.84;14.38
40205;BME280;26963;42.666;23.366;2023-07-08T08:43:47;95266.22;;;44.72;15.24
40205;BME280;26963;42.666;23.366;2023-07-08T08:49:16;95268.84;;;44.92;14.77
40205;BME280;26963;42.666;23.366;2023-07-08T08:51:43;95264.97;;;44.84;14.69
40205;BME280;26963;42.666;23.366;2023-07-08T08:54:09;95277.56;;;44.94;14.70
40205;BME280;26963;42.666;23.366;2023-07-08T08:56:42;95270.91;;;44.98;14.72
40205;BME280;26963;42.666;23.366;2023-07-08T09:01:57;95287.28;;;44.82;14.96
40205;BME280;26963;42.666;23.366;2023-07-08T09:04:29;95293.41;;;44.52;14.98
40205;BME280;26963;42.666;23.366;2023-07-08T09:07:06;95268.00;;;44.46;14.93
40205;BME280;26963;42.666;23.366;2023-07-08T09:09:40;95276.25;;;43.84;15.05
40205;BME280;26963;42.666;23.366;2023-07-08T09:12:18;95244.88;;;42.84;16.35
40205;BME280;26963;42.666;23.366;2023-07-08T09:14:46;95265.25;;;43.43;16.30
40205;BME280;26963;42.666;23.366;2023-07-08T09:17:31;95260.84;;;43.36;15.33
40205;BME280;26963;42.666;23.366;2023-07-08T09:22:44;95269.97;;;43.57;15.91
40205;BME280;26963;42.666;23.366;2023-07-08T09:25:22;95241.06;;;43.19;15.82
40205;BME280;26963;42.666;23.366;2023-07-08T09:27:49;95207.69;;;41.95;16.46
40205;BME280;26963;42.666;23.366;2023-07-08T09:30:17;95256.03;;;41.79;17.72
40205;BME280;26963;42.666;23.366;2023-07-08T09:32:43;95237.66;;;40.91;18.33
40205;BME280;26963;42.666;23.366;2023-07-08T09:35:21;95255.56;;;39.95;19.55
40205;BME280;26963;42.666;23.366;2023-07-08T09:37:48;95254.00;;;38.78;20.95
40205;BME280;26963;42.666;23.366;2023-07-08T09:40:29;95247.22;;;37.59;21.89
40205;BME280;26963;42.666;23.366;2023-07-08T09:42:59;95247.66;;;36.98;23.52
40205;BME280;26963;42.666;23.366;2023-07-08T09:45:26;95243.00;;;36.41;23.79
40205;BME280;26963;42.666;23.366;2023-07-08T09:47:53;95253.44;;;35.92;24.11
40205;BME280;26963;42.666;23.366;2023-07-08T09:50:25;95124.09;;;34.66;24.74
40205;BME280;26963;42.666;23.366;2023-07-08T09:52:54;95179.78;;;34.62;25.15
40205;BME280;26963;42.666;23.366;2023-07-08T09:55:20;95153.59;;;33.79;25.13
40205;BME280;26963;42.666;23.366;2023-07-08T09:57:48;95250.03;;;33.91;26.45
40205;BME280;26963;42.666;23.366;2023-07-08T10:00:17;95200.56;;;33.40;27.65
40205;BME280;26963;42.666;23.366;2023-07-08T10:02:49;95255.78;;;33.51;27.16
40205;BME280;26963;42.666;23.366;2023-07-08T10:05:22;95180.34;;;32.94;27.44
40205;BME280;26963;42.666;23.366;2023-07-08T10:07:53;95256.63;;;33.15;27.95
40205;BME280;26963;42.666;23.366;2023-07-08T10:10:25;95211.56;;;32.78;27.32
40205;BME280;26963;42.666;23.366;2023-07-08T10:13:15;95245.69;;;32.75;27.95
40205;BME280;26963;42.666;23.366;2023-07-08T10:15:47;95142.69;;;31.86;29.02
40205;BME280;26963;42.666;23.366;2023-07-08T10:18:16;95197.38;;;31.99;29.35
40205;BME280;26963;42.666;23.366;2023-07-08T10:23:37;95228.94;;;32.01;29.60
40205;BME280;26963;42.666;23.366;2023-07-08T10:26:14;95178.38;;;31.57;30.29
40205;BME280;26963;42.666;23.366;2023-07-08T10:31:21;95230.34;;;31.69;30.52
40205;BME280;26963;42.666;23.366;2023-07-08T10:34:00;95218.69;;;31.58;30.26
40205;BME280;26963;42.666;23.366;2023-07-08T10:42:01;95214.84;;;31.52;30.17
40205;BME280;26963;42.666;23.366;2023-07-08T10:45:19;95224.38;;;31.47;30.65
40205;BME280;26963;42.666;23.366;2023-07-08T10:50:58;95199.69;;;31.36;30.13
40205;BME280;26963;42.666;23.366;2023-07-08T10:53:56;95208.75;;;31.37;31.18
40205;BME280;26963;42.666;23.366;2023-07-08T10:56:39;95099.22;;;30.75;31.18
40205;BME280;26963;42.666;23.366;2023-07-08T10:59:19;95148.97;;;30.99;29.88
40205;BME280;26963;42.666;23.366;2023-07-08T11:07:47;95198.13;;;31.12;31.02
40205;BME280;26963;42.666;23.366;2023-07-08T11:10:35;95193.44;;;31.09;30.07
40205;BME280;26963;42.666;23.366;2023-07-08T11:13:06;95118.31;;;30.66;30.80
40205;BME280;26963;42.666;23.366;2023-07-08T11:15:58;95131.06;;;30.84;30.58
40205;BME280;26963;42.666;23.366;2023-07-08T11:18:41;95179.88;;;31.18;30.47
40205;BME280;26963;42.666;23.366;2023-07-08T11:21:13;95118.38;;;30.63;30.01
40205;BME280;26963;42.666;23.366;2023-07-08T11:23:46;95171.59;;;31.18;30.59
40205;BME280;26963;42.666;23.366;2023-07-08T11:28:46;95128.66;;;30.62;30.11
40205;BME280;26963;42.666;23.366;2023-07-08T11:31:14;95158.56;;;30.67;30.22
40205;BME280;26963;42.666;23.366;2023-07-08T11:33:40;95166.38;;;30.72;30.96
40205;BME280;26963;42.666;23.366;2023-07-08T11:36:08;95158.41;;;30.51;29.86
40205;BME280;26963;42.666;23.366;2023-07-08T11:38:35;95141.19;;;30.39;30.51
40205;BME280;26963;42.666;23.366;2023-07-08T11:41:11;95174.63;;;30.45;30.71
40205;BME280;26963;42.666;23.366;2023-07-08T11:43:47;95142.94;;;30.26;30.48
40205;BME280;26963;42.666;23.366;2023-07-08T11:46:22;95169.81;;;30.22;30.69
40205;BME280;26963;42.666;23.366;2023-07-08T11:48:52;95165.94;;;30.16;30.54
40205;BME280;26963;42.666;23.366;2023-07-08T11:51:33;95173.03;;;30.17;31.70
40205;BME280;26963;42.666;23.366;2023-07-08T11:54:17;95053.94;;;29.29;31.68
40205;BME280;26963;42.666;23.366;2023-07-08T11:56:57;95170.06;;;30.31;32.41
40205;BME280;26963;42.666;23.366;2023-07-08T11:59:26;95157.59;;;30.23;32.43
40205;BME280;26963;42.666;23.366;2023-07-08T12:02:11;95170.75;;;30.39;32.35
40205;BME280;26963;42.666;23.366;2023-07-08T12:04:57;95127.66;;;29.90;32.36
40205;BME280;26963;42.666;23.366;2023-07-08T12:07:38;95158.56;;;30.09;31.36
40205;BME280;26963;42.666;23.366;2023-07-08T12:10:33;95168.25;;;29.90;32.07
40205;BME280;26963;42.666;23.366;2023-07-08T12:13:00;95168.22;;;29.93;32.57
40205;BME280;26963;42.666;23.366;2023-07-08T12:15:31;95171.28;;;29.99;31.50
40205;BME280;26963;42.666;23.366;2023-07-08T12:18:06;95165.91;;;29.88;31.62
40205;BME280;26963;42.666;23.366;2023-07-08T12:20:37;95166.06;;;29.70;32.44
40205;BME280;26963;42.666;23.366;2023-07-08T12:23:09;95164.72;;;29.51;32.90
40205;BME280;26963;42.666;23.366;2023-07-08T12:25:36;95066.53;;;28.88;32.67
40205;BME280;26963;42.666;23.366;2023-07-08T12:28:02;95172.94;;;29.55;32.89
40205;BME280;26963;42.666;23.366;2023-07-08T12:30:29;95101.97;;;29.24;32.99
40205;BME280;26963;42.666;23.366;2023-07-08T12:32:56;95157.91;;;29.63;32.30
40205;BME280;26963;42.666;23.366;2023-07-08T12:35:26;95127.69;;;29.52;32.68
40205;BME280;26963;42.666;23.366;2023-07-08T12:37:53;95154.97;;;29.77;32.33
40205;BME280;26963;42.666;23.366;2023-07-08T12:40:23;95146.63;;;29.85;32.00
40205;BME280;26963;42.666;23.366;2023-07-08T12:42:50;95101.69;;;29.53;32.71
40205;BME280;26963;42.666;23.366;2023-07-08T12:45:18;95135.50;;;29.92;32.15
40205;BME280;26963;42.666;23.366;2023-07-08T12:47:45;95144.75;;;30.09;32.02
40205;BME280;26963;42.666;23.366;2023-07-08T12:50:11;95148.75;;;30.04;31.78
40205;BME280;26963;42.666;23.366;2023-07-08T12:52:37;95129.22;;;29.88;31.99
40205;BME280;26963;42.666;23.366;2023-07-08T12:55:03;95154.94;;;29.81;32.11
40205;BME280;26963;42.666;23.366;2023-07-08T12:57:29;95139.06;;;29.58;33.02
40205;BME280;26963;42.666;23.366;2023-07-08T12:59:55;95156.84;;;29.50;32.84
40205;BME280;26963;42.666;23.366;2023-07-08T13:02:22;95124.91;;;29.14;32.96
40205;BME280;26963;42.666;23.366;2023-07-08T13:04:58;95133.25;;;29.03;33.96
40205;BME280;26963;42.666;23.366;2023-07-08T13:07:36;95144.25;;;29.07;34.35
40205;BME280;26963;42.666;23.366;2023-07-08T13:10:05;95163.25;;;28.94;34.05
40205;BME280;26963;42.666;23.366;2023-07-08T13:12:32;95142.09;;;28.84;34.16
40205;BME280;26963;42.666;23.366;2023-07-08T13:15:02;95169.16;;;28.96;33.80
40205;BME280;26963;42.666;23.366;2023-07-08T13:17:28;95168.34;;;28.95;33.87
40205;BME280;26963;42.666;23.366;2023-07-08T13:19:54;95111.91;;;28.69;34.17
40205;BME280;26963;42.666;23.366;2023-07-08T13:22:22;95165.25;;;28.93;34.68
40205;BME280;26963;42.666;23.366;2023-07-08T13:25:09;95167.63;;;28.88;34.98
40205;BME280;26963;42.666;23.366;2023-07-08T13:27:38;95159.81;;;28.83;34.07
40205;BME280;26963;42.666;23.366;2023-07-08T13:30:19;95148.03;;;28.78;33.34
40205;BME280;26963;42.666;23.366;2023-07-08T13:32:59;95102.59;;;28.52;33.19